sensor_id;sensor_type;location;lat;lon;timestamp;P1;durP1;ratioP1;P2;durP2;ratioP2
23140;SDS011;11739;54.750;9.124;2023-08-06T00:01:59;2.95;;;1.50;;
23140;SDS011;11739;54.750;9.124;2023-08-06T00:04:24;1.77;;;1.67;;
23140;SDS011;11739;54.750;9.124;2023-08-06T00:06:49;2.92;;;1.80;;
23140;SDS011;11739;54.750;9.124;2023-08-06T00:09:15;2.05;;;1.65;;
23140;SDS011;11739;54.750;9.124;2023-08-06T00:11:40;1.92;;;1.70;;
23140;SDS011;11739;54.750;9.124;2023-08-06T00:14:05;2.53;;;1.55;;
23140;SDS011;11739;54.750;9.124;2023-08-06T00:16:31;1.98;;;1.65;;
23140;SDS011;11739;54.750;9.124;2023-08-06T00:18:56;2.67;;;1.60;;
23140;SDS011;11739;54.750;9.124;2023-08-06T00:21:21;2.00;;;1.80;;
23140;SDS011;11739;54.750;9.124;2023-08-06T00:23:47;2.13;;;1.60;;
23140;SDS011;11739;54.750;9.124;2023-08-06T00:26:12;1.95;;;1.73;;
23140;SDS011;11739;54.750;9.124;2023-08-06T00:28:37;1.50;;;1.40;;
23140;SDS011;11739;54.750;9.124;2023-08-06T00:31:02;3.60;;;1.50;;
23140;SDS011;11739;54.750;9.124;2023-08-06T00:33:28;2.30;;;1.77;;
23140;SDS011;11739;54.750;9.124;2023-08-06T00:35:53;3.83;;;1.70;;
23140;SDS011;11739;54.750;9.124;2023-08-06T00:38:18;5.38;;;1.65;;
23140;SDS011;11739;54.750;9.124;2023-08-06T00:40:44;1.90;;;1.67;;
23140;SDS011;11739;54.750;9.124;2023-08-06T00:43:09;2.40;;;1.70;;
23140;SDS011;11739;54.750;9.124;2023-08-06T00:45:35;3.65;;;1.67;;
23140;SDS011;11739;54.750;9.124;2023-08-06T00:48:01;1.58;;;1.48;;
23140;SDS011;11739;54.750;9.124;2023-08-06T00:50:28;2.85;;;1.60;;
23140;SDS011;11739;54.750;9.124;2023-08-06T00:52:54;2.72;;;1.60;;
23140;SDS011;11739;54.750;9.124;2023-08-06T00:55:19;3.47;;;1.83;;
23140;SDS011;11739;54.750;9.124;2023-08-06T00:57:44;2.22;;;1.80;;
23140;SDS011;11739;54.750;9.124;2023-08-06T01:00:10;1.92;;;1.70;;
23140;SDS011;11739;54.750;9.124;2023-08-06T01:02:36;1.70;;;1.60;;
23140;SDS011;11739;54.750;9.124;2023-08-06T01:05:01;2.92;;;1.90;;
23140;SDS011;11739;54.750;9.124;2023-08-06T01:07:32;2.60;;;1.73;;
23140;SDS011;11739;54.750;9.124;2023-08-06T01:10:10;1.92;;;1.80;;
23140;SDS011;11739;54.750;9.124;2023-08-06T01:15:53;2.85;;;1.70;;
23140;SDS011;11739;54.750;9.124;2023-08-06T01:18:20;3.28;;;1.95;;
23140;SDS011;11739;54.750;9.124;2023-08-06T01:20:45;3.03;;;1.80;;
23140;SDS011;11739;54.750;9.124;2023-08-06T01:23:11;2.50;;;1.80;;
23140;SDS011;11739;54.750;9.124;2023-08-06T01:25:40;2.88;;;1.80;;
23140;SDS011;11739;54.750;9.124;2023-08-06T01:28:22;2.28;;;1.80;;
23140;SDS011;11739;54.750;9.124;2023-08-06T01:30:54;4.73;;;1.70;;
23140;SDS011;11739;54.750;9.124;2023-08-06T01:33:20;2.78;;;1.70;;
23140;SDS011;11739;54.750;9.124;2023-08-06T01:35:46;3.35;;;1.98;;
23140;SDS011;11739;54.750;9.124;2023-08-06T01:38:13;3.08;;;1.80;;
23140;SDS011;11739;54.750;9.124;2023-08-06T01:40:38;3.35;;;1.65;;
23140;SDS011;11739;54.750;9.124;2023-08-06T01:43:03;2.13;;;1.65;;
23140;SDS011;11739;54.750;9.124;2023-08-06T01:45:28;3.13;;;1.67;;
23140;SDS011;11739;54.750;9.124;2023-08-06T01:47:54;2.38;;;1.77;;
23140;SDS011;11739;54.750;9.124;2023-08-06T01:50:19;2.45;;;1.60;;
23140;SDS011;11739;54.750;9.124;2023-08-06T01:52:44;3.20;;;1.80;;
23140;SDS011;11739;54.750;9.124;2023-08-06T01:55:10;2.67;;;1.60;;
23140;SDS011;11739;54.750;9.124;2023-08-06T01:57:35;2.67;;;1.80;;
23140;SDS011;11739;54.750;9.124;2023-08-06T02:00:00;3.47;;;1.83;;
23140;SDS011;11739;54.750;9.124;2023-08-06T02:02:26;4.78;;;1.90;;
23140;SDS011;11739;54.750;9.124;2023-08-06T02:04:51;1.70;;;1.58;;
23140;SDS011;11739;54.750;9.124;2023-08-06T02:07:16;3.50;;;2.13;;
23140;SDS011;11739;54.750;9.124;2023-08-06T02:09:41;2.70;;;1.80;;
23140;SDS011;11739;54.750;9.124;2023-08-06T02:12:07;2.45;;;1.88;;
23140;SDS011;11739;54.750;9.124;2023-08-06T02:14:32;2.00;;;1.80;;
23140;SDS011;11739;54.750;9.124;2023-08-06T02:16:58;2.22;;;1.90;;
23140;SDS011;11739;54.750;9.124;2023-08-06T02:19:23;3.03;;;2.10;;
23140;SDS011;11739;54.750;9.124;2023-08-06T02:21:48;2.20;;;2.00;;
23140;SDS011;11739;54.750;9.124;2023-08-06T02:24:14;2.90;;;2.13;;
23140;SDS011;11739;54.750;9.124;2023-08-06T02:26:39;3.30;;;1.83;;
23140;SDS011;11739;54.750;9.124;2023-08-06T02:29:04;2.58;;;1.95;;
23140;SDS011;11739;54.750;9.124;2023-08-06T02:31:30;3.05;;;2.10;;
23140;SDS011;11739;54.750;9.124;2023-08-06T02:33:55;3.83;;;1.80;;
23140;SDS011;11739;54.750;9.124;2023-08-06T02:36:20;4.38;;;2.30;;
23140;SDS011;11739;54.750;9.124;2023-08-06T02:38:45;4.65;;;2.15;;
23140;SDS011;11739;54.750;9.124;2023-08-06T02:41:11;3.28;;;2.00;;
23140;SDS011;11739;54.750;9.124;2023-08-06T02:43:37;3.97;;;2.28;;
23140;SDS011;11739;54.750;9.124;2023-08-06T02:46:02;3.67;;;2.28;;
23140;SDS011;11739;54.750;9.124;2023-08-06T02:48:27;3.25;;;2.20;;
23140;SDS011;11739;54.750;9.124;2023-08-06T02:50:53;2.60;;;1.92;;
23140;SDS011;11739;54.750;9.124;2023-08-06T02:53:18;3.80;;;2.25;;
23140;SDS011;11739;54.750;9.124;2023-08-06T02:55:46;4.80;;;2.10;;
23140;SDS011;11739;54.750;9.124;2023-08-06T02:58:12;2.67;;;2.10;;
23140;SDS011;11739;54.750;9.124;2023-08-06T03:00:37;4.05;;;2.15;;
23140;SDS011;11739;54.750;9.124;2023-08-06T03:03:03;3.45;;;1.92;;
23140;SDS011;11739;54.750;9.124;2023-08-06T03:05:28;4.13;;;2.42;;
23140;SDS011;11739;54.750;9.124;2023-08-06T03:07:53;3.38;;;2.08;;
23140;SDS011;11739;54.750;9.124;2023-08-06T03:10:18;2.83;;;2.00;;
23140;SDS011;11739;54.750;9.124;2023-08-06T03:12:44;2.92;;;2.15;;
23140;SDS011;11739;54.750;9.124;2023-08-06T03:15:09;3.25;;;2.15;;
23140;SDS011;11739;54.750;9.124;2023-08-06T03:17:34;3.30;;;2.08;;
23140;SDS011;11739;54.750;9.124;2023-08-06T03:20:00;3.15;;;1.98;;
23140;SDS011;11739;54.750;9.124;2023-08-06T03:22:25;3.70;;;1.73;;
23140;SDS011;11739;54.750;9.124;2023-08-06T03:24:50;4.40;;;2.20;;
23140;SDS011;11739;54.750;9.124;2023-08-06T03:27:16;4.50;;;2.20;;
23140;SDS011;11739;54.750;9.124;2023-08-06T03:29:41;2.42;;;1.85;;
23140;SDS011;11739;54.750;9.124;2023-08-06T03:32:06;3.55;;;2.13;;
23140;SDS011;11739;54.750;9.124;2023-08-06T03:34:32;2.65;;;2.25;;
23140;SDS011;11739;54.750;9.124;2023-08-06T03:36:57;3.30;;;2.13;;
23140;SDS011;11739;54.750;9.124;2023-08-06T03:39:22;4.20;;;2.00;;
23140;SDS011;11739;54.750;9.124;2023-08-06T03:41:48;3.88;;;2.33;;
23140;SDS011;11739;54.750;9.124;2023-08-06T03:44:13;3.08;;;2.40;;
23140;SDS011;11739;54.750;9.124;2023-08-06T03:46:38;2.42;;;2.05;;
23140;SDS011;11739;54.750;9.124;2023-08-06T03:49:04;5.72;;;2.20;;
23140;SDS011;11739;54.750;9.124;2023-08-06T03:51:29;2.85;;;1.95;;
23140;SDS011;11739;54.750;9.124;2023-08-06T03:53:54;4.53;;;2.20;;
23140;SDS011;11739;54.750;9.124;2023-08-06T03:56:20;3.80;;;2.13;;
23140;SDS011;11739;54.750;9.124;2023-08-06T03:58:45;3.80;;;2.42;;
23140;SDS011;11739;54.750;9.124;2023-08-06T04:01:10;2.35;;;2.03;;
23140;SDS011;11739;54.750;9.124;2023-08-06T04:03:35;3.65;;;1.98;;
23140;SDS011;11739;54.750;9.124;2023-08-06T04:06:04;2.53;;;2.30;;
23140;SDS011;11739;54.750;9.124;2023-08-06T04:08:29;3.50;;;2.28;;
23140;SDS011;11739;54.750;9.124;2023-08-06T04:10:54;2.55;;;2.15;;
23140;SDS011;11739;54.750;9.124;2023-08-06T04:13:20;1.90;;;1.80;;
23140;SDS011;11739;54.750;9.124;2023-08-06T04:15:45;3.53;;;2.38;;
23140;SDS011;11739;54.750;9.124;2023-08-06T04:18:11;2.95;;;2.00;;
23140;SDS011;11739;54.750;9.124;2023-08-06T04:20:43;2.88;;;2.08;;
23140;SDS011;11739;54.750;9.124;2023-08-06T04:23:08;2.85;;;2.13;;
23140;SDS011;11739;54.750;9.124;2023-08-06T04:25:34;3.30;;;2.33;;
23140;SDS011;11739;54.750;9.124;2023-08-06T04:27:59;4.32;;;2.47;;
23140;SDS011;11739;54.750;9.124;2023-08-06T04:30:24;2.60;;;2.40;;
23140;SDS011;11739;54.750;9.124;2023-08-06T04:32:50;2.33;;;2.13;;
23140;SDS011;11739;54.750;9.124;2023-08-06T04:35:15;2.20;;;2.00;;
23140;SDS011;11739;54.750;9.124;2023-08-06T04:37:40;3.08;;;2.30;;
23140;SDS011;11739;54.750;9.124;2023-08-06T04:40:06;3.28;;;2.30;;
23140;SDS011;11739;54.750;9.124;2023-08-06T04:42:31;3.25;;;1.90;;
23140;SDS011;11739;54.750;9.124;2023-08-06T04:44:57;3.00;;;1.98;;
23140;SDS011;11739;54.750;9.124;2023-08-06T04:47:22;4.95;;;2.42;;
23140;SDS011;11739;54.750;9.124;2023-08-06T04:49:47;4.38;;;2.20;;
23140;SDS011;11739;54.750;9.124;2023-08-06T04:52:12;2.53;;;2.30;;
23140;SDS011;11739;54.750;9.124;2023-08-06T04:54:38;3.95;;;2.33;;
23140;SDS011;11739;54.750;9.124;2023-08-06T04:57:03;3.13;;;2.13;;
23140;SDS011;11739;54.750;9.124;2023-08-06T04:59:29;2.75;;;2.22;;
23140;SDS011;11739;54.750;9.124;2023-08-06T05:01:54;2.97;;;2.45;;
23140;SDS011;11739;54.750;9.124;2023-08-06T05:04:19;2.05;;;1.90;;
23140;SDS011;11739;54.750;9.124;2023-08-06T05:06:44;2.42;;;2.10;;
23140;SDS011;11739;54.750;9.124;2023-08-06T05:09:10;3.70;;;2.38;;
23140;SDS011;11739;54.750;9.124;2023-08-06T05:11:35;3.08;;;2.38;;
23140;SDS011;11739;54.750;9.124;2023-08-06T05:14:00;2.92;;;2.15;;
23140;SDS011;11739;54.750;9.124;2023-08-06T05:16:26;2.55;;;2.30;;
23140;SDS011;11739;54.750;9.124;2023-08-06T05:18:51;2.92;;;2.30;;
23140;SDS011;11739;54.750;9.124;2023-08-06T05:21:16;3.15;;;2.13;;
23140;SDS011;11739;54.750;9.124;2023-08-06T05:23:42;3.22;;;2.03;;
23140;SDS011;11739;54.750;9.124;2023-08-06T05:26:07;3.38;;;2.13;;
23140;SDS011;11739;54.750;9.124;2023-08-06T05:28:32;4.57;;;2.40;;
23140;SDS011;11739;54.750;9.124;2023-08-06T05:30:58;5.38;;;2.28;;
23140;SDS011;11739;54.750;9.124;2023-08-06T05:33:23;2.90;;;2.53;;
23140;SDS011;11739;54.750;9.124;2023-08-06T05:35:49;2.45;;;2.03;;
23140;SDS011;11739;54.750;9.124;2023-08-06T05:38:16;3.80;;;2.20;;
23140;SDS011;11739;54.750;9.124;2023-08-06T05:40:41;2.45;;;2.13;;
23140;SDS011;11739;54.750;9.124;2023-08-06T05:43:06;2.38;;;2.17;;
23140;SDS011;11739;54.750;9.124;2023-08-06T05:45:32;4.28;;;2.67;;
23140;SDS011;11739;54.750;9.124;2023-08-06T05:47:57;3.08;;;2.03;;
23140;SDS011;11739;54.750;9.124;2023-08-06T05:50:22;4.78;;;2.60;;
23140;SDS011;11739;54.750;9.124;2023-08-06T05:52:48;2.78;;;2.40;;
23140;SDS011;11739;54.750;9.124;2023-08-06T05:55:13;4.93;;;2.42;;
23140;SDS011;11739;54.750;9.124;2023-08-06T05:57:38;3.25;;;2.10;;
23140;SDS011;11739;54.750;9.124;2023-08-06T06:00:04;4.13;;;2.40;;
23140;SDS011;11739;54.750;9.124;2023-08-06T06:02:29;5.00;;;2.40;;
23140;SDS011;11739;54.750;9.124;2023-08-06T06:04:55;5.40;;;2.33;;
23140;SDS011;11739;54.750;9.124;2023-08-06T06:07:20;5.88;;;2.42;;
23140;SDS011;11739;54.750;9.124;2023-08-06T06:09:45;3.40;;;2.53;;
23140;SDS011;11739;54.750;9.124;2023-08-06T06:12:11;3.17;;;2.20;;
23140;SDS011;11739;54.750;9.124;2023-08-06T06:14:36;3.22;;;2.47;;
23140;SDS011;11739;54.750;9.124;2023-08-06T06:17:01;4.55;;;2.35;;
23140;SDS011;11739;54.750;9.124;2023-08-06T06:19:27;3.30;;;2.20;;
23140;SDS011;11739;54.750;9.124;2023-08-06T06:21:52;3.90;;;2.17;;
23140;SDS011;11739;54.750;9.124;2023-08-06T06:24:18;3.40;;;2.40;;
23140;SDS011;11739;54.750;9.124;2023-08-06T06:26:43;2.38;;;2.10;;
23140;SDS011;11739;54.750;9.124;2023-08-06T06:29:08;4.07;;;2.30;;
23140;SDS011;11739;54.750;9.124;2023-08-06T06:31:34;3.33;;;2.10;;
23140;SDS011;11739;54.750;9.124;2023-08-06T06:33:59;3.13;;;2.10;;
23140;SDS011;11739;54.750;9.124;2023-08-06T06:36:24;2.58;;;2.00;;
23140;SDS011;11739;54.750;9.124;2023-08-06T06:38:50;3.25;;;2.30;;
23140;SDS011;11739;54.750;9.124;2023-08-06T06:41:15;2.90;;;2.10;;
23140;SDS011;11739;54.750;9.124;2023-08-06T06:43:40;4.40;;;2.30;;
23140;SDS011;11739;54.750;9.124;2023-08-06T06:46:06;2.95;;;2.03;;
23140;SDS011;11739;54.750;9.124;2023-08-06T06:48:32;4.15;;;2.35;;
23140;SDS011;11739;54.750;9.124;2023-08-06T06:50:57;3.72;;;2.40;;
23140;SDS011;11739;54.750;9.124;2023-08-06T06:53:23;2.45;;;2.13;;
23140;SDS011;11739;54.750;9.124;2023-08-06T06:55:48;3.17;;;2.30;;
23140;SDS011;11739;54.750;9.124;2023-08-06T06:58:13;3.70;;;2.20;;
23140;SDS011;11739;54.750;9.124;2023-08-06T07:00:39;2.92;;;1.70;;
23140;SDS011;11739;54.750;9.124;2023-08-06T07:03:04;2.83;;;2.10;;
23140;SDS011;11739;54.750;9.124;2023-08-06T07:05:30;5.10;;;2.53;;
23140;SDS011;11739;54.750;9.124;2023-08-06T07:07:55;4.43;;;2.42;;
23140;SDS011;11739;54.750;9.124;2023-08-06T07:10:20;3.22;;;1.80;;
23140;SDS011;11739;54.750;9.124;2023-08-06T07:12:45;2.45;;;2.20;;
23140;SDS011;11739;54.750;9.124;2023-08-06T07:15:11;3.97;;;2.30;;
23140;SDS011;11739;54.750;9.124;2023-08-06T07:17:36;3.38;;;2.20;;
23140;SDS011;11739;54.750;9.124;2023-08-06T07:20:02;2.85;;;2.25;;
23140;SDS011;11739;54.750;9.124;2023-08-06T07:22:27;2.60;;;2.25;;
23140;SDS011;11739;54.750;9.124;2023-08-06T07:24:52;2.58;;;2.10;;
23140;SDS011;11739;54.750;9.124;2023-08-06T07:27:18;4.78;;;2.50;;
23140;SDS011;11739;54.750;9.124;2023-08-06T07:29:43;3.40;;;1.88;;
23140;SDS011;11739;54.750;9.124;2023-08-06T07:32:08;3.67;;;2.30;;
23140;SDS011;11739;54.750;9.124;2023-08-06T07:34:34;3.00;;;2.42;;
23140;SDS011;11739;54.750;9.124;2023-08-06T07:36:59;4.68;;;1.95;;
23140;SDS011;11739;54.750;9.124;2023-08-06T07:39:24;3.03;;;1.95;;
23140;SDS011;11739;54.750;9.124;2023-08-06T07:41:50;3.15;;;2.03;;
23140;SDS011;11739;54.750;9.124;2023-08-06T07:44:15;3.03;;;1.95;;
23140;SDS011;11739;54.750;9.124;2023-08-06T07:46:40;2.53;;;1.90;;
23140;SDS011;11739;54.750;9.124;2023-08-06T07:49:06;2.03;;;1.80;;
23140;SDS011;11739;54.750;9.124;2023-08-06T07:51:31;2.28;;;2.00;;
23140;SDS011;11739;54.750;9.124;2023-08-06T07:53:56;2.17;;;1.90;;
23140;SDS011;11739;54.750;9.124;2023-08-06T07:56:22;3.83;;;1.70;;
23140;SDS011;11739;54.750;9.124;2023-08-06T07:58:47;3.03;;;2.10;;
23140;SDS011;11739;54.750;9.124;2023-08-06T08:01:12;4.47;;;2.17;;
23140;SDS011;11739;54.750;9.124;2023-08-06T08:03:37;2.70;;;1.88;;
23140;SDS011;11739;54.750;9.124;2023-08-06T08:06:03;2.65;;;1.63;;
23140;SDS011;11739;54.750;9.124;2023-08-06T08:08:28;2.25;;;1.85;;
23140;SDS011;11739;54.750;9.124;2023-08-06T08:10:54;4.40;;;1.80;;
23140;SDS011;11739;54.750;9.124;2023-08-06T08:13:19;1.80;;;1.70;;
23140;SDS011;11739;54.750;9.124;2023-08-06T08:15:44;2.72;;;1.70;;
23140;SDS011;11739;54.750;9.124;2023-08-06T08:18:10;3.78;;;2.10;;
23140;SDS011;11739;54.750;9.124;2023-08-06T08:20:35;3.05;;;1.90;;
23140;SDS011;11739;54.750;9.124;2023-08-06T08:23:00;1.98;;;1.77;;
23140;SDS011;11739;54.750;9.124;2023-08-06T08:25:26;2.25;;;1.75;;
23140;SDS011;11739;54.750;9.124;2023-08-06T08:27:53;1.85;;;1.75;;
23140;SDS011;11739;54.750;9.124;2023-08-06T08:30:18;2.83;;;1.67;;
23140;SDS011;11739;54.750;9.124;2023-08-06T08:32:44;2.08;;;1.85;;
23140;SDS011;11739;54.750;9.124;2023-08-06T08:35:09;2.22;;;1.70;;
23140;SDS011;11739;54.750;9.124;2023-08-06T08:37:35;2.70;;;1.90;;
23140;SDS011;11739;54.750;9.124;2023-08-06T08:40:00;2.13;;;1.90;;
23140;SDS011;11739;54.750;9.124;2023-08-06T08:42:26;3.20;;;1.90;;
23140;SDS011;11739;54.750;9.124;2023-08-06T08:44:51;3.63;;;1.83;;
23140;SDS011;11739;54.750;9.124;2023-08-06T08:47:17;2.63;;;1.77;;
23140;SDS011;11739;54.750;9.124;2023-08-06T08:49:42;2.83;;;1.80;;
23140;SDS011;11739;54.750;9.124;2023-08-06T08:52:08;3.25;;;2.10;;
23140;SDS011;11739;54.750;9.124;2023-08-06T08:54:35;2.50;;;1.83;;
23140;SDS011;11739;54.750;9.124;2023-08-06T08:57:03;4.00;;;1.90;;
23140;SDS011;11739;54.750;9.124;2023-08-06T08:59:28;2.10;;;1.90;;
23140;SDS011;11739;54.750;9.124;2023-08-06T09:01:53;3.22;;;1.95;;
23140;SDS011;11739;54.750;9.124;2023-08-06T09:04:19;3.47;;;1.90;;
23140;SDS011;11739;54.750;9.124;2023-08-06T09:06:51;2.55;;;1.77;;
23140;SDS011;11739;54.750;9.124;2023-08-06T09:09:22;2.67;;;1.98;;
23140;SDS011;11739;54.750;9.124;2023-08-06T09:12:02;2.00;;;1.80;;
23140;SDS011;11739;54.750;9.124;2023-08-06T09:16:57;2.53;;;1.80;;
23140;SDS011;11739;54.750;9.124;2023-08-06T09:19:23;4.50;;;2.10;;
23140;SDS011;11739;54.750;9.124;2023-08-06T09:21:50;2.40;;;1.90;;
23140;SDS011;11739;54.750;9.124;2023-08-06T09:24:16;2.60;;;1.70;;
23140;SDS011;11739;54.750;9.124;2023-08-06T09:26:41;3.47;;;2.35;;
23140;SDS011;11739;54.750;9.124;2023-08-06T09:29:08;3.17;;;2.38;;
23140;SDS011;11739;54.750;9.124;2023-08-06T09:31:44;6.32;;;2.13;;
23140;SDS011;11739;54.750;9.124;2023-08-06T09:34:11;2.80;;;2.00;;
23140;SDS011;11739;54.750;9.124;2023-08-06T09:36:47;2.97;;;2.00;;
23140;SDS011;11739;54.750;9.124;2023-08-06T09:39:26;2.60;;;2.05;;
23140;SDS011;11739;54.750;9.124;2023-08-06T09:41:55;3.20;;;1.90;;
23140;SDS011;11739;54.750;9.124;2023-08-06T09:44:24;2.38;;;2.00;;
23140;SDS011;11739;54.750;9.124;2023-08-06T09:46:51;3.35;;;2.35;;
23140;SDS011;11739;54.750;9.124;2023-08-06T09:49:17;3.40;;;2.30;;
23140;SDS011;11739;54.750;9.124;2023-08-06T09:51:43;3.55;;;2.15;;
23140;SDS011;11739;54.750;9.124;2023-08-06T09:54:09;3.95;;;2.10;;
23140;SDS011;11739;54.750;9.124;2023-08-06T09:56:37;4.15;;;2.08;;
23140;SDS011;11739;54.750;9.124;2023-08-06T09:59:02;2.58;;;2.08;;
23140;SDS011;11739;54.750;9.124;2023-08-06T10:01:29;3.55;;;1.98;;
23140;SDS011;11739;54.750;9.124;2023-08-06T10:03:55;2.65;;;2.00;;
23140;SDS011;11739;54.750;9.124;2023-08-06T10:06:22;3.13;;;1.73;;
23140;SDS011;11739;54.750;9.124;2023-08-06T10:08:49;2.50;;;2.30;;
23140;SDS011;11739;54.750;9.124;2023-08-06T10:11:14;4.00;;;2.13;;
23140;SDS011;11739;54.750;9.124;2023-08-06T10:13:40;3.13;;;2.22;;
23140;SDS011;11739;54.750;9.124;2023-08-06T10:16:05;2.95;;;1.92;;
23140;SDS011;11739;54.750;9.124;2023-08-06T10:18:31;2.40;;;1.92;;
23140;SDS011;11739;54.750;9.124;2023-08-06T10:20:58;2.80;;;1.80;;
23140;SDS011;11739;54.750;9.124;2023-08-06T10:23:32;2.50;;;1.65;;
23140;SDS011;11739;54.750;9.124;2023-08-06T10:25:58;2.00;;;1.77;;
23140;SDS011;11739;54.750;9.124;2023-08-06T10:28:24;5.03;;;2.05;;
23140;SDS011;11739;54.750;9.124;2023-08-06T10:30:59;2.35;;;1.90;;
23140;SDS011;11739;54.750;9.124;2023-08-06T10:33:24;4.55;;;2.05;;
23140;SDS011;11739;54.750;9.124;2023-08-06T10:36:06;5.20;;;1.63;;
23140;SDS011;11739;54.750;9.124;2023-08-06T10:38:33;2.08;;;1.80;;
23140;SDS011;11739;54.750;9.124;2023-08-06T10:43:27;4.63;;;2.03;;
23140;SDS011;11739;54.750;9.124;2023-08-06T10:45:54;5.78;;;2.30;;
23140;SDS011;11739;54.750;9.124;2023-08-06T10:48:29;4.00;;;2.17;;
23140;SDS011;11739;54.750;9.124;2023-08-06T10:51:08;3.05;;;1.90;;
23140;SDS011;11739;54.750;9.124;2023-08-06T10:53:35;4.57;;;2.00;;
23140;SDS011;11739;54.750;9.124;2023-08-06T10:56:00;2.70;;;1.67;;
23140;SDS011;11739;54.750;9.124;2023-08-06T10:58:30;3.13;;;1.80;;
23140;SDS011;11739;54.750;9.124;2023-08-06T11:00:56;2.00;;;1.77;;
23140;SDS011;11739;54.750;9.124;2023-08-06T11:03:22;2.10;;;1.83;;
23140;SDS011;11739;54.750;9.124;2023-08-06T11:05:50;2.10;;;1.90;;
23140;SDS011;11739;54.750;9.124;2023-08-06T11:08:23;2.90;;;2.05;;
23140;SDS011;11739;54.750;9.124;2023-08-06T11:10:49;2.30;;;2.00;;
23140;SDS011;11739;54.750;9.124;2023-08-06T11:13:18;2.40;;;1.88;;
23140;SDS011;11739;54.750;9.124;2023-08-06T11:15:44;2.42;;;1.85;;
23140;SDS011;11739;54.750;9.124;2023-08-06T11:18:09;1.98;;;1.80;;
23140;SDS011;11739;54.750;9.124;2023-08-06T11:20:34;2.70;;;1.70;;
23140;SDS011;11739;54.750;9.124;2023-08-06T11:23:00;3.15;;;1.90;;
23140;SDS011;11739;54.750;9.124;2023-08-06T11:25:25;3.00;;;1.70;;
23140;SDS011;11739;54.750;9.124;2023-08-06T11:27:50;1.90;;;1.77;;
23140;SDS011;11739;54.750;9.124;2023-08-06T11:30:16;2.75;;;1.63;;
23140;SDS011;11739;54.750;9.124;2023-08-06T11:32:45;4.22;;;2.20;;
23140;SDS011;11739;54.750;9.124;2023-08-06T11:35:11;1.80;;;1.65;;
23140;SDS011;11739;54.750;9.124;2023-08-06T11:37:37;2.50;;;1.70;;
23140;SDS011;11739;54.750;9.124;2023-08-06T11:40:13;3.08;;;1.60;;
23140;SDS011;11739;54.750;9.124;2023-08-06T11:42:39;1.95;;;1.85;;
23140;SDS011;11739;54.750;9.124;2023-08-06T11:45:05;1.90;;;1.77;;
23140;SDS011;11739;54.750;9.124;2023-08-06T11:47:30;3.78;;;2.10;;
23140;SDS011;11739;54.750;9.124;2023-08-06T11:49:56;2.45;;;1.80;;
23140;SDS011;11739;54.750;9.124;2023-08-06T11:52:22;2.78;;;1.67;;
23140;SDS011;11739;54.750;9.124;2023-08-06T11:54:59;1.73;;;1.50;;
23140;SDS011;11739;54.750;9.124;2023-08-06T11:57:31;2.88;;;1.80;;
23140;SDS011;11739;54.750;9.124;2023-08-06T11:59:57;3.70;;;1.70;;
23140;SDS011;11739;54.750;9.124;2023-08-06T12:02:22;2.03;;;1.90;;
23140;SDS011;11739;54.750;9.124;2023-08-06T12:04:57;1.95;;;1.75;;
23140;SDS011;11739;54.750;9.124;2023-08-06T12:07:28;4.30;;;1.80;;
23140;SDS011;11739;54.750;9.124;2023-08-06T12:09:53;2.08;;;1.52;;
23140;SDS011;11739;54.750;9.124;2023-08-06T12:12:19;2.30;;;1.90;;
23140;SDS011;11739;54.750;9.124;2023-08-06T12:14:44;3.15;;;1.92;;
23140;SDS011;11739;54.750;9.124;2023-08-06T12:17:09;2.38;;;1.42;;
23140;SDS011;11739;54.750;9.124;2023-08-06T12:19:35;2.05;;;1.85;;
23140;SDS011;11739;54.750;9.124;2023-08-06T12:22:01;2.08;;;1.65;;
23140;SDS011;11739;54.750;9.124;2023-08-06T12:24:26;2.42;;;1.90;;
23140;SDS011;11739;54.750;9.124;2023-08-06T12:26:51;1.88;;;1.70;;
23140;SDS011;11739;54.750;9.124;2023-08-06T12:29:17;2.60;;;1.70;;
23140;SDS011;11739;54.750;9.124;2023-08-06T12:31:42;1.90;;;1.80;;
23140;SDS011;11739;54.750;9.124;2023-08-06T12:34:07;2.10;;;1.90;;
23140;SDS011;11739;54.750;9.124;2023-08-06T12:36:33;1.70;;;1.60;;
23140;SDS011;11739;54.750;9.124;2023-08-06T12:38:58;2.53;;;1.63;;
23140;SDS011;11739;54.750;9.124;2023-08-06T12:41:23;2.63;;;2.05;;
23140;SDS011;11739;54.750;9.124;2023-08-06T12:43:48;1.70;;;1.58;;
23140;SDS011;11739;54.750;9.124;2023-08-06T12:46:14;3.72;;;1.70;;
23140;SDS011;11739;54.750;9.124;2023-08-06T12:48:39;1.95;;;1.75;;
23140;SDS011;11739;54.750;9.124;2023-08-06T12:51:04;1.90;;;1.65;;
23140;SDS011;11739;54.750;9.124;2023-08-06T12:53:30;2.00;;;1.67;;
23140;SDS011;11739;54.750;9.124;2023-08-06T12:55:55;1.90;;;1.70;;
23140;SDS011;11739;54.750;9.124;2023-08-06T12:58:20;2.35;;;2.00;;
23140;SDS011;11739;54.750;9.124;2023-08-06T13:00:46;2.85;;;1.77;;
23140;SDS011;11739;54.750;9.124;2023-08-06T13:03:11;2.25;;;1.75;;
23140;SDS011;11739;54.750;9.124;2023-08-06T13:05:36;2.58;;;1.85;;
23140;SDS011;11739;54.750;9.124;2023-08-06T13:08:01;1.83;;;1.60;;
23140;SDS011;11739;54.750;9.124;2023-08-06T13:10:27;2.03;;;1.50;;
23140;SDS011;11739;54.750;9.124;2023-08-06T13:12:52;1.70;;;1.60;;
23140;SDS011;11739;54.750;9.124;2023-08-06T13:15:17;1.65;;;1.40;;
23140;SDS011;11739;54.750;9.124;2023-08-06T13:17:43;1.63;;;1.50;;
23140;SDS011;11739;54.750;9.124;2023-08-06T13:20:08;2.30;;;1.80;;
23140;SDS011;11739;54.750;9.124;2023-08-06T13:22:33;2.30;;;1.60;;
23140;SDS011;11739;54.750;9.124;2023-08-06T13:24:59;1.90;;;1.60;;
23140;SDS011;11739;54.750;9.124;2023-08-06T13:27:24;1.95;;;1.70;;
23140;SDS011;11739;54.750;9.124;2023-08-06T13:29:49;3.10;;;1.90;;
23140;SDS011;11739;54.750;9.124;2023-08-06T13:32:15;2.50;;;1.42;;
23140;SDS011;11739;54.750;9.124;2023-08-06T13:34:40;3.63;;;1.73;;
23140;SDS011;11739;54.750;9.124;2023-08-06T13:37:05;2.80;;;1.85;;
23140;SDS011;11739;54.750;9.124;2023-08-06T13:39:30;1.88;;;1.58;;
23140;SDS011;11739;54.750;9.124;2023-08-06T13:41:56;2.30;;;1.65;;
23140;SDS011;11739;54.750;9.124;2023-08-06T13:44:21;2.33;;;1.70;;
23140;SDS011;11739;54.750;9.124;2023-08-06T13:46:46;1.95;;;1.60;;
23140;SDS011;11739;54.750;9.124;2023-08-06T13:49:12;2.05;;;1.48;;
23140;SDS011;11739;54.750;9.124;2023-08-06T13:51:37;1.95;;;1.73;;
23140;SDS011;11739;54.750;9.124;2023-08-06T13:54:03;1.50;;;1.40;;
23140;SDS011;11739;54.750;9.124;2023-08-06T13:56:28;4.13;;;1.90;;
23140;SDS011;11739;54.750;9.124;2023-08-06T13:58:53;2.80;;;1.55;;
23140;SDS011;11739;54.750;9.124;2023-08-06T14:01:19;1.65;;;1.48;;
23140;SDS011;11739;54.750;9.124;2023-08-06T14:03:44;2.40;;;1.83;;
23140;SDS011;11739;54.750;9.124;2023-08-06T14:06:09;2.47;;;1.42;;
23140;SDS011;11739;54.750;9.124;2023-08-06T14:08:35;1.60;;;1.50;;
23140;SDS011;11739;54.750;9.124;2023-08-06T14:11:00;1.98;;;1.63;;
23140;SDS011;11739;54.750;9.124;2023-08-06T14:13:25;1.88;;;1.30;;
23140;SDS011;11739;54.750;9.124;2023-08-06T14:15:51;2.42;;;1.63;;
23140;SDS011;11739;54.750;9.124;2023-08-06T14:18:16;2.03;;;1.55;;
23140;SDS011;11739;54.750;9.124;2023-08-06T14:20:42;1.83;;;1.73;;
23140;SDS011;11739;54.750;9.124;2023-08-06T14:23:07;3.28;;;1.50;;
23140;SDS011;11739;54.750;9.124;2023-08-06T14:25:32;1.92;;;1.50;;
23140;SDS011;11739;54.750;9.124;2023-08-06T14:27:58;3.15;;;1.50;;
23140;SDS011;11739;54.750;9.124;2023-08-06T14:30:23;1.73;;;1.40;;
23140;SDS011;11739;54.750;9.124;2023-08-06T14:32:48;2.65;;;1.50;;
23140;SDS011;11739;54.750;9.124;2023-08-06T14:35:14;1.83;;;1.48;;
23140;SDS011;11739;54.750;9.124;2023-08-06T14:37:39;1.70;;;1.60;;
23140;SDS011;11739;54.750;9.124;2023-08-06T14:40:05;2.20;;;1.40;;
23140;SDS011;11739;54.750;9.124;2023-08-06T14:42:30;1.80;;;1.33;;
23140;SDS011;11739;54.750;9.124;2023-08-06T14:44:56;2.35;;;1.42;;
23140;SDS011;11739;54.750;9.124;2023-08-06T14:47:21;1.88;;;1.20;;
23140;SDS011;11739;54.750;9.124;2023-08-06T14:49:46;1.92;;;1.50;;